Time;durP1;ratioP1;P1;durP2;ratioP2;P2;SDS_P1;SDS_P2;PMS_P1;PMS_P2;Temp;Humidity;BMP_temperature;BMP_pressure;BME280_temperature;BME280_humidity;BME280_pressure;Samples;Min_cycle;Max_cycle;Signal;HPM_P1;HPM_P2
2022/04/10 00:00:13;;;;;;;14.70;2.85;;;;;;;;;;5038677;28;20080;-94
2022/04/10 00:02:40;;;;;;;15.95;2.78;;;;;;;;;;5037938;28;20040;-94
2022/04/10 00:05:06;;;;;;;17.15;2.55;;;;;;;;;;5033830;28;20048;-95
2022/04/10 00:07:32;;;;;;;14.50;2.60;;;;;;;;;;5038735;28;20392;-94
2022/04/10 00:09:58;;;;;;;18.67;2.53;;;;;;;;;;5049220;28;20036;-93
2022/04/10 00:12:24;;;;;;;11.02;2.60;;;;;;;;;;5038105;28;20041;-94
2022/04/10 00:14:50;;;;;;;15.23;2.40;;;;;;;;;;5031927;28;20045;-95
2022/04/10 00:17:16;;;;;;;9.57;2.58;;;;;;;;;;5038117;28;20416;-93
2022/04/10 00:19:43;;;;;;;12.95;2.40;;;;;;;;;;5037910;28;20057;-96
2022/04/10 00:22:10;;;;;;;14.55;2.72;;;;;;;;;;5037926;28;20461;-95
2022/04/10 00:24:36;;;;;;;16.38;2.28;;;;;;;;;;5038246;28;20380;-96
2022/04/10 00:27:02;;;;;;;11.15;2.30;;;;;;;;;;5050016;28;20037;-95
2022/04/10 00:29:28;;;;;;;14.45;2.88;;;;;;;;;;5038638;28;20037;-93
2022/04/10 00:31:54;;;;;;;14.32;2.53;;;;;;;;;;5031484;28;20081;-93
2022/04/10 00:34:20;;;;;;;12.45;2.75;;;;;;;;;;5038409;28;20052;-94
2022/04/10 00:36:51;;;;;;;14.45;2.88;;;;;;;;;;5032117;28;20067;-92
2022/04/10 00:39:17;;;;;;;12.57;2.10;;;;;;;;;;5037615;28;20128;-92
2022/04/10 00:41:43;;;;;;;15.00;2.30;;;;;;;;;;5046391;28;20479;-94
2022/04/10 00:44:13;;;;;;;10.65;2.58;;;;;;;;;;5037321;28;20071;-93
2022/04/10 00:46:39;;;;;;;11.98;2.38;;;;;;;;;;5054361;28;20041;-94
2022/04/10 00:49:05;;;;;;;11.25;2.97;;;;;;;;;;5032447;28;20037;-95
2022/04/10 00:51:41;;;;;;;18.60;2.65;;;;;;;;;;5037413;28;20041;-94
2022/04/10 00:54:11;;;;;;;15.80;2.42;;;;;;;;;;5032860;28;20127;-93
2022/04/10 00:56:37;;;;;;;10.23;2.03;;;;;;;;;;5053849;28;20165;-95
2022/04/10 00:59:03;;;;;;;10.82;2.15;;;;;;;;;;5031037;28;20051;-93
2022/04/10 01:01:29;;;;;;;13.00;2.38;;;;;;;;;;5037318;28;20132;-93
2022/04/10 01:03:55;;;;;;;13.48;2.38;;;;;;;;;;5047803;28;20051;-93
2022/04/10 01:06:22;;;;;;;15.60;2.55;;;;;;;;;;5053903;28;20437;-93
2022/04/10 01:08:49;;;;;;;11.13;1.80;;;;;;;;;;5029826;28;20084;-94
2022/04/10 01:11:15;;;;;;;12.98;2.58;;;;;;;;;;5037273;28;20041;-94
2022/04/10 01:13:42;;;;;;;12.70;2.33;;;;;;;;;;5028736;28;20504;-94
2022/04/10 01:16:08;;;;;;;14.10;3.00;;;;;;;;;;5036764;28;20127;-94
2022/04/10 01:18:35;;;;;;;14.95;2.50;;;;;;;;;;5036588;28;20087;-93
2022/04/10 01:21:02;;;;;;;17.27;3.25;;;;;;;;;;5031772;28;20044;-93
2022/04/10 01:23:28;;;;;;;13.40;2.30;;;;;;;;;;5053688;28;20045;-94
2022/04/10 01:25:54;;;;;;;12.23;2.22;;;;;;;;;;5046947;28;20110;-94
2022/04/10 01:28:20;;;;;;;15.18;2.58;;;;;;;;;;5036970;28;20053;-93
2022/04/10 01:30:46;;;;;;;14.88;2.58;;;;;;;;;;5046715;28;20369;-95
2022/04/10 01:33:12;;;;;;;16.25;2.42;;;;;;;;;;5036980;28;20508;-94
2022/04/10 01:35:38;;;;;;;13.60;2.40;;;;;;;;;;5036778;28;20131;-94
2022/04/10 01:38:05;;;;;;;18.60;2.13;;;;;;;;;;5031637;28;20037;-93
2022/04/10 01:40:33;;;;;;;11.50;2.33;;;;;;;;;;5037044;28;20388;-94
2022/04/10 01:42:59;;;;;;;11.20;2.28;;;;;;;;;;5030615;28;20048;-95
2022/04/10 01:45:25;;;;;;;9.23;2.13;;;;;;;;;;5036406;28;20045;-94
2022/04/10 01:47:52;;;;;;;13.77;2.45;;;;;;;;;;5029736;28;20479;-94
2022/04/10 01:50:18;;;;;;;14.60;2.67;;;;;;;;;;5036875;28;20094;-92
2022/04/10 01:52:44;;;;;;;11.43;1.92;;;;;;;;;;5044716;28;20048;-93
2022/04/10 01:55:10;;;;;;;18.73;2.65;;;;;;;;;;5053220;28;20131;-93
2022/04/10 01:57:36;;;;;;;12.70;2.33;;;;;;;;;;5036331;28;20078;-95
2022/04/10 02:00:04;;;;;;;15.02;2.47;;;;;;;;;;5031066;28;20533;-93
2022/04/10 02:02:30;;;;;;;11.80;2.25;;;;;;;;;;5036286;28;20072;-94
2022/04/10 02:04:56;;;;;;;11.35;1.75;;;;;;;;;;5029552;28;20072;-93
2022/04/10 02:07:22;;;;;;;13.02;2.78;;;;;;;;;;5036092;28;20124;-93
2022/04/10 02:09:48;;;;;;;11.07;2.20;;;;;;;;;;5028133;28;20047;-94
2022/04/10 02:12:14;;;;;;;10.50;2.70;;;;;;;;;;5052717;28;20041;-94
2022/04/10 02:14:40;;;;;;;15.57;2.53;;;;;;;;;;5035743;28;20436;-93
2022/04/10 02:17:06;;;;;;;11.73;2.17;;;;;;;;;;5031023;28;20056;-93
2022/04/10 02:19:32;;;;;;;8.20;2.30;;;;;;;;;;5035814;28;20088;-94
2022/04/10 02:21:59;;;;;;;10.43;1.63;;;;;;;;;;5029879;28;20055;-95
2022/04/10 02:24:25;;;;;;;13.05;2.42;;;;;;;;;;5052281;28;20108;-93
2022/04/10 02:26:51;;;;;;;13.63;3.30;;;;;;;;;;5029272;28;20045;-94
2022/04/10 02:29:17;;;;;;;9.75;2.10;;;;;;;;;;5035280;28;20041;-93
2022/04/10 02:31:43;;;;;;;11.80;2.22;;;;;;;;;;5027916;28;20087;-94
2022/04/10 02:34:09;;;;;;;11.95;2.45;;;;;;;;;;5052003;28;20044;-92
2022/04/10 02:36:35;;;;;;;11.50;2.20;;;;;;;;;;5035626;28;20154;-93
2022/04/10 02:39:01;;;;;;;14.68;2.38;;;;;;;;;;5046837;28;20041;-92
2022/04/10 02:41:27;;;;;;;12.70;2.60;;;;;;;;;;5035291;28;20099;-92
2022/04/10 02:43:53;;;;;;;15.32;2.78;;;;;;;;;;5045593;28;20071;-94
2022/04/10 02:46:19;;;;;;;15.32;2.75;;;;;;;;;;5035850;28;20037;-94
2022/04/10 02:48:45;;;;;;;15.68;2.45;;;;;;;;;;5027532;28;20476;-94
2022/04/10 02:51:11;;;;;;;19.75;2.60;;;;;;;;;;5035783;28;20098;-93
2022/04/10 02:53:37;;;;;;;13.45;2.75;;;;;;;;;;5035360;28;20048;-94
2022/04/10 02:56:03;;;;;;;7.40;1.95;;;;;;;;;;5030134;28;20043;-95
2022/04/10 02:58:29;;;;;;;14.20;2.03;;;;;;;;;;5035453;28;20044;-93
2022/04/10 03:00:55;;;;;;;14.52;2.35;;;;;;;;;;5045735;28;20064;-93
2022/04/10 03:03:21;;;;;;;13.80;2.42;;;;;;;;;;5035541;28;20049;-94
2022/04/10 03:05:47;;;;;;;8.82;1.77;;;;;;;;;;5028649;28;20384;-93
2022/04/10 03:08:13;;;;;;;12.15;2.50;;;;;;;;;;5035408;28;20040;-93
2022/04/10 03:10:39;;;;;;;14.88;2.63;;;;;;;;;;5035055;28;20033;-94
2022/04/10 03:13:05;;;;;;;14.75;2.47;;;;;;;;;;5030326;28;20132;-93
2022/04/10 03:15:32;;;;;;;9.23;1.90;;;;;;;;;;5035314;28;20492;-93
2022/04/10 03:17:58;;;;;;;10.55;2.20;;;;;;;;;;5029643;28;20472;-92
2022/04/10 03:20:24;;;;;;;11.77;1.73;;;;;;;;;;5051894;28;20131;-93
2022/04/10 03:22:50;;;;;;;8.80;1.80;;;;;;;;;;5032076;28;20044;-94
2022/04/10 03:25:16;;;;;;;13.85;2.28;;;;;;;;;;5038825;28;20045;-93
2022/04/10 03:27:42;;;;;;;13.05;2.28;;;;;;;;;;5048379;28;20037;-94
2022/04/10 03:30:08;;;;;;;9.85;1.40;;;;;;;;;;5055575;28;20033;-95
2022/04/10 03:32:34;;;;;;;13.25;2.13;;;;;;;;;;5038725;28;20125;-94
2022/04/10 03:35:00;;;;;;;10.40;1.70;;;;;;;;;;5033421;28;20479;-94
2022/04/10 03:37:26;;;;;;;10.93;1.88;;;;;;;;;;5038904;28;20127;-94
2022/04/10 03:39:52;;;;;;;9.20;1.67;;;;;;;;;;5032420;28;20037;-94
2022/04/10 03:42:18;;;;;;;11.20;1.30;;;;;;;;;;5038815;28;20041;-92
2022/04/10 03:44:44;;;;;;;10.18;1.40;;;;;;;;;;5047261;28;20098;-94
2022/04/10 03:47:10;;;;;;;6.90;1.60;;;;;;;;;;5039129;28;20052;-93
2022/04/10 03:49:36;;;;;;;9.82;1.70;;;;;;;;;;5038880;28;20041;-94
2022/04/10 03:52:02;;;;;;;7.70;1.55;;;;;;;;;;5049995;28;20037;-94
2022/04/10 03:54:28;;;;;;;13.52;1.83;;;;;;;;;;5038609;28;20045;-93
2022/04/10 03:56:54;;;;;;;9.05;1.48;;;;;;;;;;5048841;28;20392;-93
2022/04/10 03:59:20;;;;;;;5.68;1.40;;;;;;;;;;5055182;28;20048;-93
2022/04/10 04:01:46;;;;;;;9.00;1.40;;;;;;;;;;5030954;28;20076;-94
2022/04/10 04:04:12;;;;;;;8.23;1.77;;;;;;;;;;5038266;28;20132;-94
2022/04/10 04:06:38;;;;;;;12.57;1.70;;;;;;;;;;5038464;28;20067;-95
2022/04/10 04:09:04;;;;;;;8.65;1.35;;;;;;;;;;5033175;28;20484;-93
2022/04/10 04:11:30;;;;;;;7.18;1.67;;;;;;;;;;5038497;28;20087;-95
2022/04/10 04:13:56;;;;;;;9.23;1.33;;;;;;;;;;5032076;28;20140;-93
2022/04/10 04:16:22;;;;;;;8.98;1.73;;;;;;;;;;5038504;28;20473;-92
2022/04/10 04:18:49;;;;;;;9.55;1.63;;;;;;;;;;5030638;28;20049;-93
2022/04/10 04:21:15;;;;;;;7.55;1.33;;;;;;;;;;5037837;28;20041;-93
2022/04/10 04:23:41;;;;;;;6.40;1.35;;;;;;;;;;5038318;28;20045;-94
2022/04/10 04:26:07;;;;;;;6.70;1.15;;;;;;;;;;5037953;28;20484;-95
2022/04/10 04:28:36;;;;;;;6.40;1.67;;;;;;;;;;5038134;28;20040;-93
2022/04/10 04:31:02;;;;;;;6.40;1.15;;;;;;;;;;5032519;28;20037;-94
2022/04/10 04:33:28;;;;;;;8.00;1.30;;;;;;;;;;5054768;28;20079;-93
2022/04/10 04:35:54;;;;;;;5.93;1.00;;;;;;;;;;5031314;28;20476;-93
2022/04/10 04:38:20;;;;;;;9.98;1.52;;;;;;;;;;5038170;28;20049;-93
2022/04/10 04:40:46;;;;;;;6.70;1.25;;;;;;;;;;5030559;28;20361;-92
2022/04/10 04:43:12;;;;;;;9.95;1.98;;;;;;;;;;5054313;28;20049;-95
2022/04/10 04:45:38;;;;;;;7.82;1.42;;;;;;;;;;5037500;28;20041;-93
2022/04/10 04:48:04;;;;;;;7.13;1.10;;;;;;;;;;5032720;28;20374;-94
2022/04/10 04:50:30;;;;;;;8.38;1.05;;;;;;;;;;5037499;28;20132;-94
2022/04/10 04:52:56;;;;;;;9.35;1.05;;;;;;;;;;5031623;28;20076;-93
2022/04/10 04:55:22;;;;;;;11.38;1.30;;;;;;;;;;5037337;28;20043;-94
2022/04/10 04:57:48;;;;;;;5.82;1.10;;;;;;;;;;5030369;28;20044;-93
2022/04/10 05:00:14;;;;;;;5.00;0.90;;;;;;;;;;5037796;28;20048;-93
2022/04/10 05:02:40;;;;;;;6.10;1.20;;;;;;;;;;5054338;28;20139;-94
2022/04/10 05:05:07;;;;;;;11.35;0.98;;;;;;;;;;5032188;28;20107;-94
2022/04/10 05:07:33;;;;;;;7.30;1.10;;;;;;;;;;5037220;28;20044;-94
2022/04/10 05:09:59;;;;;;;6.55;0.95;;;;;;;;;;5031394;28;20037;-94
2022/04/10 05:12:26;;;;;;;7.20;1.33;;;;;;;;;;5037243;28;20063;-94
2022/04/10 05:14:52;;;;;;;7.95;1.50;;;;;;;;;;5030225;28;20051;-94
2022/04/10 05:17:18;;;;;;;7.53;1.63;;;;;;;;;;5037253;28;20423;-93
2022/04/10 05:19:44;;;;;;;8.57;1.30;;;;;;;;;;5029027;28;20112;-93
2022/04/10 05:22:10;;;;;;;5.32;1.10;;;;;;;;;;5036840;28;20048;-95
2022/04/10 05:24:36;;;;;;;7.55;1.38;;;;;;;;;;5053542;28;20037;-93
2022/04/10 05:27:02;;;;;;;11.95;1.65;;;;;;;;;;5048533;28;20140;-94
2022/04/10 05:29:28;;;;;;;5.15;0.98;;;;;;;;;;5037188;28;20091;-94
2022/04/10 05:31:54;;;;;;;6.90;0.98;;;;;;;;;;5030348;28;20041;-93
2022/04/10 05:34:20;;;;;;;8.07;1.52;;;;;;;;;;5037160;28;20037;-93
2022/04/10 05:36:45;;;;;;;4.65;0.90;;;;;;;;;;5045970;28;20041;-93
2022/04/10 05:39:11;;;;;;;4.03;1.25;;;;;;;;;;5037046;28;20377;-93
2022/04/10 05:41:37;;;;;;;5.63;1.05;;;;;;;;;;5036980;28;20044;-94
2022/04/10 05:44:04;;;;;;;5.38;1.15;;;;;;;;;;5031218;28;20051;-94
2022/04/10 05:46:30;;;;;;;11.73;1.50;;;;;;;;;;5036678;28;20041;-93
2022/04/10 05:48:56;;;;;;;6.60;1.05;;;;;;;;;;5046820;28;20132;-92
2022/04/10 05:51:22;;;;;;;6.25;1.13;;;;;;;;;;5053311;28;20072;-94
2022/04/10 05:53:48;;;;;;;8.00;1.27;;;;;;;;;;5046297;28;20076;-95
2022/04/10 05:56:14;;;;;;;9.27;1.00;;;;;;;;;;5036283;28;20381;-95
2022/04/10 05:58:40;;;;;;;6.30;1.08;;;;;;;;;;5036455;28;20128;-94
2022/04/10 06:01:06;;;;;;;9.35;1.20;;;;;;;;;;5031582;28;20076;-94
2022/04/10 06:03:32;;;;;;;11.73;1.15;;;;;;;;;;5036084;28;20032;-93
2022/04/10 06:05:58;;;;;;;7.22;1.20;;;;;;;;;;5030219;28;20041;-95
2022/04/10 06:08:24;;;;;;;6.90;1.10;;;;;;;;;;5036299;28;20033;-94
2022/04/10 06:10:50;;;;;;;6.57;1.20;;;;;;;;;;5029089;28;20037;-93
2022/04/10 06:13:17;;;;;;;8.50;1.13;;;;;;;;;;5036268;28;20044;-94
2022/04/10 06:15:43;;;;;;;8.57;1.73;;;;;;;;;;5036132;28;20040;-94
2022/04/10 06:18:09;;;;;;;3.78;1.10;;;;;;;;;;5036356;28;20043;-95
2022/04/10 06:20:35;;;;;;;6.32;1.30;;;;;;;;;;5036056;28;20414;-93
2022/04/10 06:23:01;;;;;;;6.22;1.58;;;;;;;;;;5030691;28;20146;-94
2022/04/10 06:25:27;;;;;;;7.40;1.33;;;;;;;;;;5036064;28;20049;-93
2022/04/10 06:27:55;;;;;;;5.47;1.20;;;;;;;;;;5046216;28;20041;-93
2022/04/10 06:30:21;;;;;;;8.02;1.60;;;;;;;;;;5035586;28;20433;-90
2022/04/10 06:32:47;;;;;;;7.53;1.45;;;;;;;;;;5028756;28;20136;-93
2022/04/10 06:35:14;;;;;;;7.85;1.35;;;;;;;;;;5054782;28;20084;-93
2022/04/10 06:37:40;;;;;;;8.45;1.50;;;;;;;;;;5055216;28;20037;-92
2022/04/10 06:40:06;;;;;;;7.63;1.30;;;;;;;;;;5067123;28;20040;-94
2022/04/10 06:42:33;;;;;;;6.22;1.30;;;;;;;;;;5049327;28;20057;-93
2022/04/10 06:44:59;;;;;;;5.85;1.27;;;;;;;;;;5051630;28;20041;-94
2022/04/10 06:47:27;;;;;;;3.67;0.77;;;;;;;;;;5056250;28;20041;-92
2022/04/10 06:49:53;;;;;;;8.25;2.13;;;;;;;;;;5053959;28;20037;-92
2022/04/10 06:52:19;;;;;;;11.45;1.35;;;;;;;;;;5055016;28;20507;-93
2022/04/10 06:54:45;;;;;;;8.57;1.50;;;;;;;;;;5063863;28;20041;-93
2022/04/10 06:57:11;;;;;;;7.60;1.20;;;;;;;;;;5058424;28;20048;-92
2022/04/10 06:59:37;;;;;;;7.35;1.60;;;;;;;;;;5061654;28;20572;-91
2022/04/10 07:02:03;;;;;;;5.45;1.38;;;;;;;;;;5061101;28;20040;-92
2022/04/10 07:04:29;;;;;;;8.15;1.50;;;;;;;;;;5075205;28;20098;-96
2022/04/10 07:06:55;;;;;;;8.00;1.35;;;;;;;;;;5052616;28;20044;-92
2022/04/10 07:09:21;;;;;;;8.18;1.55;;;;;;;;;;5059215;28;20434;-93
2022/04/10 07:11:47;;;;;;;6.78;1.20;;;;;;;;;;5051306;28;20032;-94
2022/04/10 07:14:13;;;;;;;6.30;1.42;;;;;;;;;;5059247;28;20488;-93
2022/04/10 07:16:39;;;;;;;6.97;1.30;;;;;;;;;;5059707;28;20133;-93
2022/04/10 07:19:06;;;;;;;9.93;1.55;;;;;;;;;;5054066;28;20087;-90
2022/04/10 07:24:16;;;;;;;5.55;1.35;;;;;;;;;;5072442;28;20049;-93
2022/04/10 07:26:42;;;;;;;6.35;1.17;;;;;;;;;;5050766;28;20565;-91
2022/04/10 07:29:12;;;;;;;6.22;1.10;;;;;;;;;;5059145;28;20036;-93
2022/04/10 07:31:38;;;;;;;3.75;0.73;;;;;;;;;;5059427;28;20067;-94
2022/04/10 07:34:07;;;;;;;4.55;1.15;;;;;;;;;;5054545;28;20480;-92
2022/04/10 07:36:33;;;;;;;6.38;1.67;;;;;;;;;;5059811;28;20125;-92
2022/04/10 07:39:00;;;;;;;6.38;1.58;;;;;;;;;;5069844;28;20487;-93
2022/04/10 07:41:26;;;;;;;5.63;1.20;;;;;;;;;;5058667;28;20040;-94
2022/04/10 07:43:52;;;;;;;6.45;1.63;;;;;;;;;;5052306;28;20048;-93
2022/04/10 07:49:06;;;;;;;7.55;1.42;;;;;;;;;;5070091;28;20048;-93
2022/04/10 07:51:32;;;;;;;9.50;1.60;;;;;;;;;;5059333;28;20542;-91
2022/04/10 07:53:58;;;;;;;12.20;1.70;;;;;;;;;;5051575;28;20032;-94
2022/04/10 07:56:24;;;;;;;10.50;1.70;;;;;;;;;;5059232;28;20047;-94
2022/04/10 07:58:50;;;;;;;9.98;1.75;;;;;;;;;;5067890;28;20119;-93
2022/04/10 08:01:16;;;;;;;9.48;2.00;;;;;;;;;;5058125;28;20476;-93
2022/04/10 08:03:42;;;;;;;8.25;2.00;;;;;;;;;;5057672;28;20142;-91
2022/04/10 08:06:08;;;;;;;5.43;1.50;;;;;;;;;;5056306;28;20040;-92
2022/04/10 08:08:34;;;;;;;7.43;1.40;;;;;;;;;;5073893;28;20128;-92
2022/04/10 08:11:00;;;;;;;9.15;1.70;;;;;;;;;;5051307;28;20388;-92
2022/04/10 08:13:26;;;;;;;13.07;1.95;;;;;;;;;;5057244;28;20072;-91
2022/04/10 08:15:52;;;;;;;7.93;1.50;;;;;;;;;;5066529;28;20487;-95
2022/04/10 08:18:18;;;;;;;6.00;1.30;;;;;;;;;;5057898;28;20135;-95
2022/04/10 08:20:44;;;;;;;7.82;1.55;;;;;;;;;;5049200;28;20096;-93
2022/04/10 08:23:13;;;;;;;8.10;1.52;;;;;;;;;;5074215;28;20071;-93
2022/04/10 08:25:39;;;;;;;10.85;2.05;;;;;;;;;;5056879;28;20040;-94
2022/04/10 08:28:05;;;;;;;14.02;1.58;;;;;;;;;;5053013;28;20138;-94
2022/04/10 08:30:31;;;;;;;6.97;1.35;;;;;;;;;;5056837;28;20036;-93
2022/04/10 08:32:59;;;;;;;9.60;1.48;;;;;;;;;;5068724;28;20447;-93
2022/04/10 08:35:25;;;;;;;9.43;1.48;;;;;;;;;;5053935;28;20130;-93
2022/04/10 08:37:51;;;;;;;6.15;1.20;;;;;;;;;;5067041;28;20037;-93
2022/04/10 08:40:17;;;;;;;10.45;1.70;;;;;;;;;;5073099;28;20399;-93
2022/04/10 08:42:43;;;;;;;8.70;1.40;;;;;;;;;;5041036;28;20112;-94
2022/04/10 08:45:10;;;;;;;12.13;1.83;;;;;;;;;;5041035;28;20084;-92
2022/04/10 08:47:39;;;;;;;9.05;1.73;;;;;;;;;;5039987;28;20044;-91
2022/04/10 08:50:08;;;;;;;9.63;1.50;;;;;;;;;;5069447;28;20075;-93
2022/04/10 08:52:35;;;;;;;10.60;1.48;;;;;;;;;;5072919;28;20036;-92
2022/04/10 08:55:01;;;;;;;8.50;1.40;;;;;;;;;;5069133;28;20517;-94
2022/04/10 08:57:30;;;;;;;10.15;1.67;;;;;;;;;;5056599;28;20043;-93
2022/04/10 08:59:58;;;;;;;11.38;1.85;;;;;;;;;;5067561;28;20544;-94
2022/04/10 09:02:24;;;;;;;8.02;1.45;;;;;;;;;;5055557;28;20060;-94
2022/04/10 09:04:50;;;;;;;10.75;2.03;;;;;;;;;;5050291;28;20156;-94
2022/04/10 09:07:16;;;;;;;9.70;1.67;;;;;;;;;;5072654;28;20032;-93
2022/04/10 09:09:52;;;;;;;9.23;1.63;;;;;;;;;;5074159;28;20412;-95
2022/04/10 09:12:18;;;;;;;11.40;1.75;;;;;;;;;;5055639;28;20037;-94
2022/04/10 09:14:44;;;;;;;5.88;1.45;;;;;;;;;;5049091;28;20036;-93
2022/04/10 09:17:14;;;;;;;12.93;2.00;;;;;;;;;;5055613;28;20131;-93
2022/04/10 09:19:45;;;;;;;8.50;1.30;;;;;;;;;;5072578;28;20064;-93
2022/04/10 09:22:24;;;;;;;10.50;1.88;;;;;;;;;;5036539;28;20136;-94
2022/04/10 09:25:07;;;;;;;11.55;1.88;;;;;;;;;;5055500;28;20048;-95
2022/04/10 09:27:35;;;;;;;12.07;1.80;;;;;;;;;;5052760;28;20059;-93
2022/04/10 09:30:01;;;;;;;8.57;1.70;;;;;;;;;;5021507;28;20115;-93
2022/04/10 09:32:57;;;;;;;7.57;1.50;;;;;;;;;;5019460;28;20044;-93
2022/04/10 09:35:24;;;;;;;11.18;1.73;;;;;;;;;;5042465;28;20049;-92
2022/04/10 09:37:54;;;;;;;7.25;1.55;;;;;;;;;;5045161;28;20041;-93
2022/04/10 09:40:29;;;;;;;12.77;1.30;;;;;;;;;;5055196;28;20128;-94
2022/04/10 09:43:05;;;;;;;7.38;1.15;;;;;;;;;;5046130;28;20044;-93
2022/04/10 09:45:40;;;;;;;7.93;1.25;;;;;;;;;;5053276;28;20212;-93
2022/04/10 09:48:19;;;;;;;7.82;1.15;;;;;;;;;;5036679;28;20037;-94
2022/04/10 09:50:52;;;;;;;7.13;1.08;;;;;;;;;;5019264;28;20041;-93
2022/04/10 09:53:18;;;;;;;6.07;1.02;;;;;;;;;;5020269;28;20033;-94
2022/04/10 09:55:44;;;;;;;6.68;1.33;;;;;;;;;;5020350;28;20041;-93
2022/04/10 09:58:11;;;;;;;6.93;1.20;;;;;;;;;;5036190;28;20045;-95
2022/04/10 10:00:39;;;;;;;5.05;1.02;;;;;;;;;;5020412;28;20539;-94
2022/04/10 10:03:06;;;;;;;5.65;1.00;;;;;;;;;;5046395;28;20079;-94
2022/04/10 10:05:32;;;;;;;4.25;0.85;;;;;;;;;;5073289;28;20487;-94
2022/04/10 10:08:03;;;;;;;5.32;1.00;;;;;;;;;;5048182;28;20126;-94
2022/04/10 10:10:30;;;;;;;6.72;1.20;;;;;;;;;;5043531;28;20051;-96
2022/04/10 10:12:56;;;;;;;8.07;1.35;;;;;;;;;;5066450;28;20075;-96
2022/04/10 10:15:23;;;;;;;8.07;1.48;;;;;;;;;;5073259;28;20497;-96
2022/04/10 10:17:49;;;;;;;9.98;1.40;;;;;;;;;;5038934;28;20041;-93
2022/04/10 10:20:17;;;;;;;8.85;1.40;;;;;;;;;;5036115;28;20513;-95
2022/04/10 10:22:43;;;;;;;8.75;1.05;;;;;;;;;;5038382;28;20048;-96
2022/04/10 10:25:15;;;;;;;7.28;1.23;;;;;;;;;;5056142;28;20036;-93
2022/04/10 10:28:03;;;;;;;4.82;0.90;;;;;;;;;;5039173;28;20483;-93
2022/04/10 10:30:38;;;;;;;9.23;1.45;;;;;;;;;;5056347;28;20062;-93
2022/04/10 10:33:15;;;;;;;7.57;1.73;;;;;;;;;;5055882;28;20394;-93
2022/04/10 10:35:43;;;;;;;10.23;1.60;;;;;;;;;;5056233;28;20044;-96
2022/04/10 10:38:38;;;;;;;6.22;1.50;;;;;;;;;;5055910;28;20135;-93
2022/04/10 10:41:13;;;;;;;10.05;1.67;;;;;;;;;;5022985;28;20048;-95
2022/04/10 10:43:39;;;;;;;9.30;2.40;;;;;;;;;;5055794;28;20040;-96
2022/04/10 10:46:43;;;;;;;7.47;1.27;;;;;;;;;;5056147;28;20102;-94
2022/04/10 10:49:16;;;;;;;8.20;1.55;;;;;;;;;;5055678;28;20097;-93
2022/04/10 10:51:42;;;;;;;8.88;1.30;;;;;;;;;;5055783;28;20041;-93
2022/04/10 10:54:11;;;;;;;8.27;1.55;;;;;;;;;;5054861;28;20082;-92
2022/04/10 10:56:37;;;;;;;8.88;1.27;;;;;;;;;;5055225;28;20094;-91
2022/04/10 10:59:29;;;;;;;8.80;1.48;;;;;;;;;;5055016;28;20083;-92
2022/04/10 11:02:06;;;;;;;7.68;1.58;;;;;;;;;;5055434;28;20033;-91
2022/04/10 11:04:42;;;;;;;8.65;1.75;;;;;;;;;;5055193;28;20084;-91
2022/04/10 11:07:21;;;;;;;8.52;1.20;;;;;;;;;;5055186;28;20044;-91
2022/04/10 11:09:58;;;;;;;5.85;1.30;;;;;;;;;;5054663;28;20068;-91
2022/04/10 11:12:29;;;;;;;8.52;2.20;;;;;;;;;;5054690;28;20048;-90
2022/04/10 11:14:56;;;;;;;9.25;1.60;;;;;;;;;;5054462;28;20047;-91
2022/04/10 11:17:32;;;;;;;7.25;1.05;;;;;;;;;;5055607;28;20071;-93
2022/04/10 11:20:01;;;;;;;4.88;1.23;;;;;;;;;;5051753;28;20061;-94
2022/04/10 11:22:39;;;;;;;6.50;1.35;;;;;;;;;;5052130;28;20047;-94
2022/04/10 11:25:06;;;;;;;9.73;1.50;;;;;;;;;;5034952;28;20392;-94
2022/04/10 11:27:53;;;;;;;8.05;1.80;;;;;;;;;;5035627;28;20029;-95
2022/04/10 11:30:22;;;;;;;6.40;1.10;;;;;;;;;;5035247;28;20128;-93
2022/04/10 11:32:50;;;;;;;8.38;1.20;;;;;;;;;;5035547;28;20037;-94
2022/04/10 11:35:18;;;;;;;4.88;1.00;;;;;;;;;;5052228;28;20079;-93
2022/04/10 11:37:47;;;;;;;7.82;1.50;;;;;;;;;;5035526;28;20097;-96
2022/04/10 11:40:14;;;;;;;5.40;1.45;;;;;;;;;;5051848;28;20044;-93
2022/04/10 11:42:40;;;;;;;6.45;1.33;;;;;;;;;;5037485;28;20117;-90
2022/04/10 11:45:07;;;;;;;5.05;0.90;;;;;;;;;;5038153;28;20076;-92
2022/04/10 11:47:35;;;;;;;5.45;1.38;;;;;;;;;;5056281;28;20106;-91
2022/04/10 11:50:01;;;;;;;3.63;0.90;;;;;;;;;;5055133;28;20396;-91
2022/04/10 11:52:27;;;;;;;7.18;1.30;;;;;;;;;;5038591;28;20032;-92
2022/04/10 11:55:24;;;;;;;;;;;;;;;;;;;;;
2022/04/10 11:58:37;;;;;;;6.75;1.00;;;;;;;;;;5057724;28;20103;-91
2022/04/10 12:01:03;;;;;;;6.13;0.70;;;;;;;;;;5023457;28;20056;-93
2022/04/10 12:03:43;;;;;;;5.70;1.33;;;;;;;;;;5063456;28;20041;-94
2022/04/10 12:06:10;;;;;;;4.82;1.05;;;;;;;;;;5064847;28;20044;-95
2022/04/10 12:08:36;;;;;;;8.88;1.20;;;;;;;;;;5056200;28;20040;-94
2022/04/10 12:11:03;;;;;;;6.95;1.38;;;;;;;;;;5056207;28;20047;-94
2022/04/10 12:13:37;;;;;;;7.60;0.88;;;;;;;;;;5059111;28;20115;-94
2022/04/10 12:16:38;;;;;;;7.65;1.10;;;;;;;;;;5060142;28;20044;-93
2022/04/10 12:19:04;;;;;;;5.60;1.02;;;;;;;;;;5035380;28;20060;-89
2022/04/10 12:21:35;;;;;;;5.20;0.90;;;;;;;;;;5076136;28;20048;-92
2022/04/10 12:24:08;;;;;;;6.40;1.13;;;;;;;;;;5075565;28;20189;-95
2022/04/10 12:27:08;;;;;;;;;;;;;;;;;;;;;
2022/04/10 12:29:32;;;;;;;6.28;1.10;;;;;;;;;;5078338;28;20040;-94
2022/04/10 12:32:02;;;;;;;6.53;1.30;;;;;;;;;;5076980;28;20032;-94
2022/04/10 12:34:35;;;;;;;3.90;0.85;;;;;;;;;;5058004;28;20094;-93
2022/04/10 12:37:08;;;;;;;6.05;1.30;;;;;;;;;;5075234;28;20048;-92
2022/04/10 12:39:34;;;;;;;8.35;1.45;;;;;;;;;;5503176;22;20432;-93
2022/04/10 12:44:37;;;;;;;7.53;1.00;;;;;;;;;;5033425;28;20038;-92
2022/04/10 12:47:03;;;;;;;7.47;1.13;;;;;;;;;;5018997;28;20519;-95
2022/04/10 12:49:30;;;;;;;5.57;0.98;;;;;;;;;;5017419;28;20037;-94
2022/04/10 12:52:03;;;;;;;7.97;1.42;;;;;;;;;;5019050;28;20046;-93
2022/04/10 12:54:38;;;;;;;6.05;1.02;;;;;;;;;;5036365;28;20045;-93
2022/04/10 12:57:06;;;;;;;8.73;1.27;;;;;;;;;;5037427;28;20048;-93
2022/04/10 12:59:46;;;;;;;3.78;1.02;;;;;;;;;;5037222;28;20055;-95
2022/04/10 13:02:28;;;;;;;4.85;0.82;;;;;;;;;;5037179;28;20381;-94
2022/04/10 13:05:05;;;;;;;4.90;0.93;;;;;;;;;;5020447;28;20072;-93
2022/04/10 13:07:32;;;;;;;7.75;1.50;;;;;;;;;;5037389;28;20437;-94
2022/04/10 13:10:04;;;;;;;6.55;1.27;;;;;;;;;;5020732;28;20045;-93
2022/04/10 13:12:31;;;;;;;5.22;1.15;;;;;;;;;;5021038;28;20523;-94
2022/04/10 13:14:57;;;;;;;5.68;1.20;;;;;;;;;;5036836;28;20073;-92
2022/04/10 13:17:33;;;;;;;6.28;1.30;;;;;;;;;;5037690;28;20048;-92
2022/04/10 13:20:07;;;;;;;8.48;1.17;;;;;;;;;;5037022;28;20041;-90
2022/04/10 13:22:37;;;;;;;7.10;1.45;;;;;;;;;;5020437;28;20072;-92
2022/04/10 13:25:04;;;;;;;10.90;1.85;;;;;;;;;;5020450;28;20037;-90
2022/04/10 13:27:30;;;;;;;6.93;1.08;;;;;;;;;;5020397;28;20067;-90
2022/04/10 13:29:57;;;;;;;6.47;1.08;;;;;;;;;;5020249;28;20040;-90
2022/04/10 13:32:23;;;;;;;4.80;0.98;;;;;;;;;;5036570;28;20041;-91
2022/04/10 13:34:49;;;;;;;4.43;1.30;;;;;;;;;;5036935;28;20045;-91
2022/04/10 13:37:15;;;;;;;6.18;1.20;;;;;;;;;;5020379;28;20396;-91
2022/04/10 13:39:41;;;;;;;7.30;1.20;;;;;;;;;;5036695;28;20048;-90
2022/04/10 13:42:08;;;;;;;7.78;1.20;;;;;;;;;;5036648;28;20040;-92
2022/04/10 13:44:34;;;;;;;4.20;1.00;;;;;;;;;;5019944;28;20132;-91
2022/04/10 13:47:00;;;;;;;6.75;1.10;;;;;;;;;;5019771;28;20072;-90
2022/04/10 13:49:26;;;;;;;10.25;3.50;;;;;;;;;;5020213;28;20388;-91
2022/04/10 13:51:51;;;;;;;9.35;2.83;;;;;;;;;;5036158;28;20037;-90
2022/04/10 13:54:17;;;;;;;8.90;2.15;;;;;;;;;;5036691;28;20037;-91
2022/04/10 13:56:44;;;;;;;8.43;2.45;;;;;;;;;;5021216;28;20041;-92
2022/04/10 13:59:10;;;;;;;8.75;1.52;;;;;;;;;;5017687;28;20472;-90
2022/04/10 14:01:36;;;;;;;6.35;2.40;;;;;;;;;;5019571;28;20178;-90
2022/04/10 14:04:03;;;;;;;11.90;6.25;;;;;;;;;;5016701;28;20147;-90
2022/04/10 14:06:30;;;;;;;9.90;5.57;;;;;;;;;;5036064;28;20399;-91
2022/04/10 14:08:58;;;;;;;6.20;0.95;;;;;;;;;;5019129;28;20033;-90
2022/04/10 14:11:24;;;;;;;8.90;2.10;;;;;;;;;;5019932;28;20048;-90
2022/04/10 14:13:50;;;;;;;7.13;1.40;;;;;;;;;;5035919;28;20043;-91
2022/04/10 14:16:17;;;;;;;7.50;1.15;;;;;;;;;;5035274;28;20483;-90
2022/04/10 14:18:43;;;;;;;5.68;1.25;;;;;;;;;;5035931;28;20073;-93
2022/04/10 14:21:09;;;;;;;6.35;1.02;;;;;;;;;;5018284;28;20044;-91
2022/04/10 14:23:35;;;;;;;5.47;1.33;;;;;;;;;;5019004;28;20044;-91
2022/04/10 14:26:01;;;;;;;8.50;1.63;;;;;;;;;;5034689;28;20079;-90
2022/04/10 14:28:27;;;;;;;10.00;2.88;;;;;;;;;;5035801;28;20155;-90
2022/04/10 14:30:53;;;;;;;7.60;1.48;;;;;;;;;;5034762;28;20094;-91
2022/04/10 14:33:21;;;;;;;7.30;1.20;;;;;;;;;;5035579;28;20364;-90
2022/04/10 14:35:47;;;;;;;8.43;1.17;;;;;;;;;;5034364;28;20396;-90
2022/04/10 14:38:13;;;;;;;5.30;0.82;;;;;;;;;;5019342;28;20045;-90
2022/04/10 14:40:43;;;;;;;4.05;0.90;;;;;;;;;;5018311;28;20568;-91
2022/04/10 14:43:10;;;;;;;6.65;1.35;;;;;;;;;;5010432;28;20061;-89
2022/04/10 14:45:36;;;;;;;6.93;1.27;;;;;;;;;;5014535;28;20049;-91
2022/04/10 14:48:02;;;;;;;9.60;2.80;;;;;;;;;;5016394;28;20045;-91
2022/04/10 14:50:28;;;;;;;6.68;2.13;;;;;;;;;;5003369;28;20481;-93
2022/04/10 14:52:55;;;;;;;8.48;1.55;;;;;;;;;;4979392;28;20034;-92